Time;durP1;ratioP1;P1;durP2;ratioP2;P2;SDS_P1;SDS_P2;PMS_P1;PMS_P2;Temp;Humidity;BMP_temperature;BMP_pressure;BME280_temperature;BME280_humidity;BME280_pressure;Samples;Min_cycle;Max_cycle;Signal;HPM_P1;HPM_P2
2021/12/06 00:00:10;;;;;;;13.98;6.78;;;;;;;;;;5007909;28;20121;-56
2021/12/06 00:02:36;;;;;;;;;;;;;;;;;;5005138;28;20164;-55
2021/12/06 00:05:05;;;;;;;13.40;5.65;;;;;;;;;;5008181;28;19957;-55
2021/12/06 00:07:32;;;;;;;20.38;8.05;;;;;;;;;;5004771;28;20085;-57
2021/12/06 00:09:59;;;;;;;17.88;7.05;;;;;;;;;;5008354;28;20058;-57
2021/12/06 00:12:25;;;;;;;21.02;9.32;;;;;;;;;;5008131;28;20141;-55
2021/12/06 00:14:54;;;;;;;18.25;7.65;;;;;;;;;;5004620;28;20053;-56
2021/12/06 00:17:21;;;;;;;17.77;7.95;;;;;;;;;;5008555;28;20058;-57
2021/12/06 00:19:47;;;;;;;18.58;9.10;;;;;;;;;;5004647;28;20081;-50
2021/12/06 00:22:16;;;;;;;22.40;9.13;;;;;;;;;;5008665;28;20057;-57
2021/12/06 00:24:43;;;;;;;16.02;6.38;;;;;;;;;;5006572;28;20069;-55
2021/12/06 00:27:09;;;;;;;17.85;8.45;;;;;;;;;;5010178;28;20104;-54
2021/12/06 00:29:37;;;;;;;17.70;8.02;;;;;;;;;;5004276;28;20046;-53
2021/12/06 00:32:04;;;;;;;21.20;9.50;;;;;;;;;;5007743;28;20136;-55
2021/12/06 00:34:34;;;;;;;18.45;8.00;;;;;;;;;;5004286;28;20140;-57
2021/12/06 00:37:16;;;;;;;21.40;8.70;;;;;;;;;;4987008;28;20058;-56
2021/12/06 00:39:45;;;;;;;23.35;9.77;;;;;;;;;;4992931;28;20049;-55
2021/12/06 00:42:11;;;;;;;17.67;8.70;;;;;;;;;;5026368;28;20109;-53
2021/12/06 00:44:38;;;;;;;21.98;9.55;;;;;;;;;;5004128;28;20030;-56
2021/12/06 00:47:05;;;;;;;17.95;7.75;;;;;;;;;;5007414;28;20045;-56
2021/12/06 00:49:32;;;;;;;18.60;7.90;;;;;;;;;;5003322;28;20054;-56
2021/12/06 00:51:59;;;;;;;22.58;9.35;;;;;;;;;;5007010;28;20050;-55
2021/12/06 00:54:25;;;;;;;15.45;7.30;;;;;;;;;;5003071;28;20060;-54
2021/12/06 00:56:53;;;;;;;15.52;7.30;;;;;;;;;;5007488;28;20292;-57
2021/12/06 00:59:20;;;;;;;16.08;7.10;;;;;;;;;;5000976;28;20053;-55
2021/12/06 01:01:46;;;;;;;18.27;6.85;;;;;;;;;;5003394;28;20141;-53
2021/12/06 01:04:15;;;;;;;19.38;8.25;;;;;;;;;;5006993;28;20058;-57
2021/12/06 01:06:43;;;;;;;21.70;8.73;;;;;;;;;;5003321;28;20168;-55
2021/12/06 01:09:09;;;;;;;15.05;7.70;;;;;;;;;;5006767;28;20066;-57
2021/12/06 01:11:36;;;;;;;14.38;6.22;;;;;;;;;;5003436;28;20074;-52
2021/12/06 01:14:04;;;;;;;16.42;7.68;;;;;;;;;;5006760;28;20476;-55
2021/12/06 01:16:31;;;;;;;14.70;7.13;;;;;;;;;;5003764;28;20137;-53
2021/12/06 01:18:57;;;;;;;16.45;7.20;;;;;;;;;;5007619;28;20056;-54
2021/12/06 01:21:29;;;;;;;20.83;7.93;;;;;;;;;;5004425;28;20077;-56
2021/12/06 01:23:59;;;;;;;13.93;6.85;;;;;;;;;;5007631;28;20060;-55
2021/12/06 01:26:44;;;;;;;15.30;7.47;;;;;;;;;;5003305;28;20573;-55
2021/12/06 01:29:42;;;;;;;24.63;9.55;;;;;;;;;;5006467;28;20060;-55
2021/12/06 01:32:18;;;;;;;26.83;8.80;;;;;;;;;;5003414;28;20151;-56
2021/12/06 01:40:21;;;;;;;16.40;7.78;;;;;;;;;;4934236;28;20082;-54
2021/12/06 01:42:47;;;;;;;20.25;8.68;;;;;;;;;;4986662;28;20065;-55
2021/12/06 01:45:16;;;;;;;25.25;10.45;;;;;;;;;;5006944;28;20414;-57
2021/12/06 01:47:43;;;;;;;18.33;8.43;;;;;;;;;;5004047;28;20131;-55
2021/12/06 01:50:11;;;;;;;28.00;10.45;;;;;;;;;;5009119;28;20112;-55
2021/12/06 01:52:38;;;;;;;21.92;9.05;;;;;;;;;;5006325;28;20054;-55
2021/12/06 01:55:06;;;;;;;19.30;7.68;;;;;;;;;;5007616;28;20492;-57
2021/12/06 01:57:34;;;;;;;28.05;10.32;;;;;;;;;;5002750;28;20399;-57
2021/12/06 02:00:00;;;;;;;24.77;8.93;;;;;;;;;;5006398;28;20141;-54
2021/12/06 02:02:29;;;;;;;27.25;10.88;;;;;;;;;;5002957;28;20108;-54
2021/12/06 02:04:56;;;;;;;27.95;10.70;;;;;;;;;;5006730;28;20050;-56
2021/12/06 02:07:24;;;;;;;28.23;10.40;;;;;;;;;;5002945;28;20399;-56
2021/12/06 02:09:51;;;;;;;18.92;7.93;;;;;;;;;;5006341;28;20081;-55
2021/12/06 02:12:18;;;;;;;19.35;8.52;;;;;;;;;;5003298;28;20058;-53
2021/12/06 02:14:54;;;;;;;25.15;9.45;;;;;;;;;;5005571;28;20142;-55
2021/12/06 02:17:25;;;;;;;29.77;12.25;;;;;;;;;;5006239;28;20188;-55
2021/12/06 02:19:58;;;;;;;18.90;9.00;;;;;;;;;;5004370;28;20058;-56
2021/12/06 02:22:28;;;;;;;16.67;7.45;;;;;;;;;;5005997;28;20061;-56
2021/12/06 02:24:56;;;;;;;18.30;6.93;;;;;;;;;;5002885;28;20076;-55
2021/12/06 02:27:23;;;;;;;26.75;10.63;;;;;;;;;;5006423;28;20076;-56
2021/12/06 02:29:51;;;;;;;23.55;9.52;;;;;;;;;;5002074;28;20121;-55
2021/12/06 02:32:18;;;;;;;22.17;8.60;;;;;;;;;;5023419;28;20507;-56
2021/12/06 02:34:47;;;;;;;17.48;7.25;;;;;;;;;;5002471;28;20204;-57
2021/12/06 02:37:14;;;;;;;26.27;10.30;;;;;;;;;;5022737;28;20045;-54
2021/12/06 02:39:42;;;;;;;26.38;10.43;;;;;;;;;;5002084;28;20061;-54
2021/12/06 02:42:11;;;;;;;23.15;9.23;;;;;;;;;;5005842;28;20058;-55
2021/12/06 02:44:38;;;;;;;16.95;7.50;;;;;;;;;;5003321;28;20054;-55
2021/12/06 02:47:05;;;;;;;20.45;8.73;;;;;;;;;;5007430;28;20049;-53
2021/12/06 02:49:31;;;;;;;23.08;10.18;;;;;;;;;;5002497;28;20137;-57
2021/12/06 02:51:58;;;;;;;19.77;8.00;;;;;;;;;;5006397;28;20144;-56
2021/12/06 02:54:26;;;;;;;22.73;8.77;;;;;;;;;;5005973;28;20078;-55
2021/12/06 02:57:06;;;;;;;23.00;9.77;;;;;;;;;;5009814;28;20116;-55
2021/12/06 02:59:33;;;;;;;25.35;10.40;;;;;;;;;;5005616;28;20042;-55
2021/12/06 03:02:00;;;;;;;21.17;9.50;;;;;;;;;;5009652;28;20046;-56
2021/12/06 03:04:27;;;;;;;24.70;10.57;;;;;;;;;;5005698;28;20058;-57
2021/12/06 03:06:55;;;;;;;31.13;11.10;;;;;;;;;;5009494;28;20397;-55
2021/12/06 03:09:23;;;;;;;25.42;9.90;;;;;;;;;;5009509;28;20072;-56
2021/12/06 03:11:51;;;;;;;26.02;10.57;;;;;;;;;;5005651;28;20049;-54
2021/12/06 03:14:21;;;;;;;22.77;9.70;;;;;;;;;;5026688;28;20046;-52
2021/12/06 03:16:48;;;;;;;20.35;8.98;;;;;;;;;;5009133;28;20077;-57
2021/12/06 03:19:15;;;;;;;16.15;7.40;;;;;;;;;;5012949;28;20519;-53
2021/12/06 03:21:42;;;;;;;26.88;10.35;;;;;;;;;;5005521;28;20049;-57
2021/12/06 03:24:09;;;;;;;30.02;11.32;;;;;;;;;;5009331;28;20112;-56
2021/12/06 03:26:36;;;;;;;28.23;11.50;;;;;;;;;;5005466;28;20128;-53
2021/12/06 03:29:03;;;;;;;28.43;10.77;;;;;;;;;;5009337;28;20053;-52
2021/12/06 03:31:32;;;;;;;22.42;8.40;;;;;;;;;;5005594;28;20289;-54
2021/12/06 03:33:58;;;;;;;28.08;9.48;;;;;;;;;;5008818;28;20108;-56
2021/12/06 03:36:26;;;;;;;28.42;10.75;;;;;;;;;;5005250;28;20084;-52
2021/12/06 03:38:53;;;;;;;21.40;7.72;;;;;;;;;;5008805;28;20077;-55
2021/12/06 03:41:20;;;;;;;30.77;10.98;;;;;;;;;;5005082;28;20567;-55
2021/12/06 03:43:47;;;;;;;18.67;7.93;;;;;;;;;;5008532;28;20434;-54
2021/12/06 03:46:16;;;;;;;19.52;8.45;;;;;;;;;;5005168;28;20065;-57
2021/12/06 03:48:44;;;;;;;21.95;8.05;;;;;;;;;;5008965;28;20080;-56
2021/12/06 03:51:10;;;;;;;16.75;7.80;;;;;;;;;;5006036;28;20141;-55
2021/12/06 03:53:37;;;;;;;19.85;7.40;;;;;;;;;;5008306;28;20539;-55
2021/12/06 03:56:05;;;;;;;19.92;7.97;;;;;;;;;;5008619;28;20137;-56
2021/12/06 03:58:32;;;;;;;28.88;11.30;;;;;;;;;;5004614;28;20054;-57
2021/12/06 04:01:00;;;;;;;32.20;12.05;;;;;;;;;;5008595;28;20184;-55
2021/12/06 04:03:27;;;;;;;31.77;11.90;;;;;;;;;;5004273;28;20058;-56
2021/12/06 04:05:56;;;;;;;26.63;10.50;;;;;;;;;;5007960;28;20081;-56
2021/12/06 04:08:22;;;;;;;;;;;;;;;;;;5004650;28;20144;-55
2021/12/06 04:10:49;;;;;;;23.52;9.35;;;;;;;;;;5024872;28;20004;-56
2021/12/06 04:13:16;;;;;;;20.55;8.27;;;;;;;;;;5005527;28;20058;-57
2021/12/06 04:15:44;;;;;;;23.65;9.50;;;;;;;;;;5008419;28;20053;-55
2021/12/06 04:18:11;;;;;;;21.85;8.00;;;;;;;;;;5004481;28;20054;-56
2021/12/06 04:20:38;;;;;;;25.80;11.40;;;;;;;;;;5008478;28;20050;-57
2021/12/06 04:23:07;;;;;;;27.50;10.18;;;;;;;;;;5004998;28;20113;-57
2021/12/06 04:25:35;;;;;;;19.23;8.23;;;;;;;;;;5009689;28;20587;-56
2021/12/06 04:28:06;;;;;;;29.98;10.55;;;;;;;;;;5004963;28;20575;-57
2021/12/06 04:30:33;;;;;;;33.75;11.45;;;;;;;;;;5008138;28;20141;-53
2021/12/06 04:32:59;;;;;;;27.63;10.00;;;;;;;;;;5004355;28;20058;-53
2021/12/06 04:35:27;;;;;;;22.05;9.18;;;;;;;;;;5008204;28;20060;-56
2021/12/06 04:37:53;;;;;;;32.50;11.13;;;;;;;;;;5007052;28;20148;-56
2021/12/06 04:40:21;;;;;;;28.73;10.85;;;;;;;;;;5007084;28;20077;-52
2021/12/06 04:42:48;;;;;;;21.60;8.65;;;;;;;;;;5010852;28;20076;-54
2021/12/06 04:45:16;;;;;;;32.85;11.10;;;;;;;;;;5007175;28;20057;-54
2021/12/06 04:47:43;;;;;;;25.13;8.77;;;;;;;;;;5007641;28;20144;-51
2021/12/06 04:50:10;;;;;;;21.00;9.02;;;;;;;;;;5004243;28;20074;-54
2021/12/06 04:52:37;;;;;;;34.13;12.02;;;;;;;;;;5007263;28;20073;-54
2021/12/06 04:55:06;;;;;;;25.73;10.13;;;;;;;;;;5003816;28;20056;-54
2021/12/06 04:57:38;;;;;;;24.23;9.43;;;;;;;;;;5007327;28;20057;-54
2021/12/06 05:00:08;;;;;;;22.33;8.70;;;;;;;;;;5003073;28;20050;-56
2021/12/06 05:02:37;;;;;;;32.00;12.35;;;;;;;;;;5007459;28;20140;-56
2021/12/06 05:05:05;;;;;;;33.63;13.05;;;;;;;;;;5003728;28;20054;-57
2021/12/06 05:07:34;;;;;;;23.80;9.77;;;;;;;;;;5007040;28;20062;-53
2021/12/06 05:10:01;;;;;;;35.25;10.52;;;;;;;;;;5003442;28;20081;-54
2021/12/06 05:12:28;;;;;;;31.52;11.70;;;;;;;;;;5007118;28;20545;-54
2021/12/06 05:14:58;;;;;;;38.80;11.13;;;;;;;;;;5002981;28;20148;-53
2021/12/06 05:17:25;;;;;;;33.25;12.23;;;;;;;;;;4990677;28;20054;-55
2021/12/06 05:19:51;;;;;;;28.52;10.52;;;;;;;;;;5003083;28;20046;-54
2021/12/06 05:22:19;;;;;;;30.45;9.82;;;;;;;;;;5006655;28;20057;-53
2021/12/06 05:24:47;;;;;;;27.40;10.40;;;;;;;;;;5001294;28;20053;-56
2021/12/06 05:27:13;;;;;;;30.53;10.73;;;;;;;;;;5022250;28;20092;-51
2021/12/06 05:29:44;;;;;;;29.73;10.55;;;;;;;;;;5006652;28;20304;-55
2021/12/06 05:32:12;;;;;;;27.73;9.52;;;;;;;;;;5003348;28;20072;-54
2021/12/06 05:34:43;;;;;;;30.35;11.85;;;;;;;;;;5007179;28;20377;-56
2021/12/06 05:37:10;;;;;;;31.25;11.57;;;;;;;;;;5004407;28;20054;-55
2021/12/06 05:39:36;;;;;;;31.88;11.43;;;;;;;;;;5006989;28;20165;-53
2021/12/06 05:42:05;;;;;;;35.05;11.40;;;;;;;;;;5002993;28;20108;-53
2021/12/06 05:44:32;;;;;;;29.27;10.38;;;;;;;;;;5006222;28;20057;-54
2021/12/06 05:47:00;;;;;;;34.83;11.05;;;;;;;;;;5002877;28;20132;-54
2021/12/06 05:49:28;;;;;;;30.38;10.82;;;;;;;;;;5006852;28;20089;-54
2021/12/06 05:51:54;;;;;;;24.88;9.93;;;;;;;;;;5002948;28;20050;-54
2021/12/06 05:54:21;;;;;;;32.88;11.65;;;;;;;;;;5006238;28;20077;-57
2021/12/06 05:56:49;;;;;;;24.63;10.38;;;;;;;;;;5002639;28;20172;-54
2021/12/06 05:59:16;;;;;;;27.90;10.40;;;;;;;;;;5006459;28;20049;-57
2021/12/06 06:01:42;;;;;;;28.85;10.93;;;;;;;;;;5000417;28;20316;-57
2021/12/06 06:04:09;;;;;;;34.50;11.85;;;;;;;;;;5006392;28;20077;-55
2021/12/06 06:06:37;;;;;;;31.20;12.52;;;;;;;;;;5005556;28;20060;-56
2021/12/06 06:09:04;;;;;;;37.05;11.85;;;;;;;;;;5010773;28;20062;-55
2021/12/06 06:11:34;;;;;;;32.83;12.23;;;;;;;;;;5008361;28;20108;-56
2021/12/06 06:14:00;;;;;;;30.17;10.68;;;;;;;;;;5022002;28;20054;-52
2021/12/06 06:16:31;;;;;;;36.88;12.27;;;;;;;;;;5008953;28;20161;-55
2021/12/06 06:18:58;;;;;;;34.30;12.07;;;;;;;;;;5001940;28;20073;-55
2021/12/06 06:21:24;;;;;;;31.70;11.95;;;;;;;;;;5005571;28;20116;-57
2021/12/06 06:23:52;;;;;;;33.20;11.13;;;;;;;;;;5002519;28;20058;-56
2021/12/06 06:26:19;;;;;;;39.37;12.10;;;;;;;;;;5008278;28;20168;-55
2021/12/06 06:28:46;;;;;;;30.40;12.02;;;;;;;;;;5007994;28;20315;-55
2021/12/06 06:31:12;;;;;;;29.75;9.65;;;;;;;;;;5009139;28;20069;-56
2021/12/06 06:33:38;;;;;;;33.83;12.18;;;;;;;;;;5005648;28;20141;-55
2021/12/06 06:36:05;;;;;;;38.40;12.30;;;;;;;;;;5009543;28;20064;-55
2021/12/06 06:38:32;;;;;;;27.50;10.02;;;;;;;;;;5007458;28;20133;-55
2021/12/06 06:41:00;;;;;;;26.45;9.43;;;;;;;;;;5009547;28;20068;-50
2021/12/06 06:43:27;;;;;;;25.95;9.02;;;;;;;;;;5005990;28;20388;-58
2021/12/06 06:45:54;;;;;;;31.05;10.77;;;;;;;;;;5009443;28;20096;-58
2021/12/06 06:48:20;;;;;;;22.17;8.07;;;;;;;;;;5004739;28;20123;-54
2021/12/06 06:50:46;;;;;;;32.05;11.80;;;;;;;;;;5009194;28;20056;-53
2021/12/06 06:53:13;;;;;;;21.88;7.40;;;;;;;;;;5006226;28;20064;-56
2021/12/06 06:55:42;;;;;;;24.10;8.75;;;;;;;;;;5008695;28;20054;-56
2021/12/06 06:58:10;;;;;;;28.17;9.52;;;;;;;;;;5008478;28;20052;-57
2021/12/06 07:00:37;;;;;;;31.00;9.10;;;;;;;;;;5006182;28;20069;-57
2021/12/06 07:03:05;;;;;;;29.25;9.68;;;;;;;;;;5010324;28;20135;-56
2021/12/06 07:05:32;;;;;;;36.63;12.63;;;;;;;;;;5006573;28;20064;-57
2021/12/06 07:07:58;;;;;;;30.27;10.02;;;;;;;;;;5009214;28;20056;-57
2021/12/06 07:10:25;;;;;;;33.92;10.02;;;;;;;;;;5005438;28;20128;-55
2021/12/06 07:12:52;;;;;;;35.88;12.85;;;;;;;;;;5009055;28;20081;-53
2021/12/06 07:15:21;;;;;;;32.78;9.43;;;;;;;;;;5005413;28;20050;-55
2021/12/06 07:17:47;;;;;;;21.50;8.40;;;;;;;;;;5008718;28;20049;-56
2021/12/06 07:20:14;;;;;;;38.05;13.18;;;;;;;;;;5005532;28;20057;-52
2021/12/06 07:22:41;;;;;;;24.08;9.00;;;;;;;;;;5009467;28;20145;-55
2021/12/06 07:25:10;;;;;;;30.98;11.27;;;;;;;;;;5005617;28;20062;-51
2021/12/06 07:27:36;;;;;;;35.28;11.68;;;;;;;;;;5026395;28;20073;-53
2021/12/06 07:30:03;;;;;;;27.27;10.68;;;;;;;;;;5005658;28;20052;-57
2021/12/06 07:32:31;;;;;;;32.10;9.95;;;;;;;;;;5010244;28;20513;-53
2021/12/06 07:34:58;;;;;;;32.95;11.00;;;;;;;;;;5006617;28;20115;-56
2021/12/06 07:37:24;;;;;;;26.77;9.65;;;;;;;;;;5009603;28;20053;-56
2021/12/06 07:39:51;;;;;;;23.08;8.73;;;;;;;;;;5008628;28;20053;-56
2021/12/06 07:42:18;;;;;;;26.08;8.63;;;;;;;;;;5004947;28;20057;-55
2021/12/06 07:44:44;;;;;;;20.85;7.93;;;;;;;;;;5009451;28;20046;-53
2021/12/06 07:47:12;;;;;;;22.13;8.52;;;;;;;;;;5004929;28;20054;-54
2021/12/06 07:49:39;;;;;;;29.25;9.63;;;;;;;;;;5009059;28;20062;-54
2021/12/06 07:52:06;;;;;;;26.97;9.53;;;;;;;;;;5004741;28;20085;-56
2021/12/06 07:54:33;;;;;;;22.30;8.95;;;;;;;;;;5008823;28;20133;-54
2021/12/06 07:57:01;;;;;;;26.58;8.63;;;;;;;;;;4988052;28;20203;-55
2021/12/06 07:59:27;;;;;;;28.73;8.10;;;;;;;;;;5024064;28;20060;-55
2021/12/06 08:01:54;;;;;;;26.95;9.13;;;;;;;;;;4988970;28;20060;-55
2021/12/06 08:04:22;;;;;;;25.27;8.52;;;;;;;;;;4992612;28;20052;-56
2021/12/06 08:06:50;;;;;;;33.78;11.73;;;;;;;;;;5005479;28;20492;-56
2021/12/06 08:09:17;;;;;;;33.95;11.02;;;;;;;;;;5008517;28;20054;-58
2021/12/06 08:11:43;;;;;;;21.42;8.70;;;;;;;;;;5003927;28;20048;-55
2021/12/06 08:14:10;;;;;;;26.70;9.70;;;;;;;;;;5008525;28;20124;-55
2021/12/06 08:16:42;;;;;;;27.65;9.52;;;;;;;;;;5004240;28;20068;-55
2021/12/06 08:19:08;;;;;;;19.75;7.68;;;;;;;;;;5007878;28;20119;-55
2021/12/06 08:21:36;;;;;;;26.73;8.90;;;;;;;;;;5007114;28;20551;-56
2021/12/06 08:24:05;;;;;;;29.27;10.15;;;;;;;;;;5005768;28;20061;-54
2021/12/06 08:26:32;;;;;;;24.02;7.97;;;;;;;;;;5008071;28;20488;-58
2021/12/06 08:29:00;;;;;;;21.33;7.53;;;;;;;;;;5005680;28;20145;-56
2021/12/06 08:31:27;;;;;;;28.15;10.77;;;;;;;;;;5008075;28;20161;-54
2021/12/06 08:33:54;;;;;;;35.35;11.20;;;;;;;;;;5004113;28;20131;-57
2021/12/06 08:36:21;;;;;;;21.42;8.13;;;;;;;;;;5007719;28;20092;-56
2021/12/06 08:38:48;;;;;;;26.25;9.93;;;;;;;;;;5004449;28;20149;-55
2021/12/06 08:41:17;;;;;;;24.98;10.68;;;;;;;;;;5007628;28;20169;-54
2021/12/06 08:43:45;;;;;;;24.35;10.10;;;;;;;;;;5003744;28;20168;-56
2021/12/06 08:46:13;;;;;;;27.83;11.45;;;;;;;;;;5008048;28;20081;-54
2021/12/06 08:48:40;;;;;;;30.10;11.45;;;;;;;;;;5004076;28;20060;-56
2021/12/06 08:51:08;;;;;;;29.88;11.98;;;;;;;;;;5006799;28;20057;-57
2021/12/06 08:53:35;;;;;;;27.17;9.95;;;;;;;;;;5003990;28;20054;-54
2021/12/06 08:56:05;;;;;;;29.40;11.20;;;;;;;;;;5008093;28;20539;-55
2021/12/06 08:58:33;;;;;;;22.75;8.98;;;;;;;;;;5006100;28;20085;-52
2021/12/06 09:00:59;;;;;;;23.60;7.27;;;;;;;;;;5010652;28;20069;-56
2021/12/06 09:03:26;;;;;;;25.70;9.75;;;;;;;;;;5004650;28;20056;-56
2021/12/06 09:05:54;;;;;;;17.55;7.80;;;;;;;;;;5007486;28;20145;-56
2021/12/06 09:08:21;;;;;;;22.08;9.25;;;;;;;;;;5007293;28;20499;-53
2021/12/06 09:10:49;;;;;;;22.70;9.40;;;;;;;;;;5003437;28;20077;-57
2021/12/06 09:13:16;;;;;;;27.30;10.52;;;;;;;;;;5006367;28;20058;-52
2021/12/06 09:15:46;;;;;;;25.60;9.82;;;;;;;;;;5003138;28;20145;-53
2021/12/06 09:18:12;;;;;;;22.10;8.60;;;;;;;;;;5023204;28;20108;-56
2021/12/06 09:20:41;;;;;;;22.83;9.05;;;;;;;;;;5003220;28;20077;-57
2021/12/06 09:23:07;;;;;;;27.65;11.10;;;;;;;;;;5023130;28;20057;-55
2021/12/06 09:25:35;;;;;;;27.20;10.35;;;;;;;;;;5002680;28;20141;-56
2021/12/06 09:28:03;;;;;;;23.77;9.35;;;;;;;;;;5006364;28;20149;-57
2021/12/06 09:30:30;;;;;;;23.33;9.20;;;;;;;;;;5002875;28;20050;-56
2021/12/06 09:33:00;;;;;;;23.92;11.00;;;;;;;;;;5006192;28;20046;-57
2021/12/06 09:35:29;;;;;;;18.60;7.80;;;;;;;;;;5002983;28;20062;-56
2021/12/06 09:37:57;;;;;;;23.05;9.35;;;;;;;;;;5006326;28;20053;-55
2021/12/06 09:40:25;;;;;;;24.80;10.10;;;;;;;;;;5002359;28;20057;-56
2021/12/06 09:42:52;;;;;;;26.70;9.88;;;;;;;;;;5006083;28;20115;-57
2021/12/06 09:45:21;;;;;;;26.60;10.93;;;;;;;;;;5002765;28;20049;-58
2021/12/06 09:47:51;;;;;;;24.70;9.45;;;;;;;;;;5006853;28;20141;-56
2021/12/06 09:50:24;;;;;;;20.08;8.38;;;;;;;;;;5002757;28;20138;-57
2021/12/06 09:52:50;;;;;;;24.67;9.07;;;;;;;;;;5006933;28;20060;-58
2021/12/06 09:55:18;;;;;;;22.63;9.88;;;;;;;;;;5004621;28;20120;-57
2021/12/06 09:57:44;;;;;;;22.60;9.50;;;;;;;;;;5006731;28;20331;-52
2021/12/06 10:00:12;;;;;;;17.70;8.05;;;;;;;;;;5023712;28;20053;-56
2021/12/06 10:02:39;;;;;;;25.27;8.65;;;;;;;;;;5002126;28;20116;-54
2021/12/06 10:05:07;;;;;;;22.60;9.35;;;;;;;;;;5006180;28;20054;-55
2021/12/06 10:07:36;;;;;;;22.00;8.77;;;;;;;;;;5001425;28;20057;-56
2021/12/06 10:10:05;;;;;;;17.27;7.57;;;;;;;;;;5006198;28;20054;-54
2021/12/06 10:12:36;;;;;;;20.63;7.95;;;;;;;;;;5002590;28;20049;-54
2021/12/06 10:15:06;;;;;;;20.88;8.32;;;;;;;;;;5006694;28;20046;-56
2021/12/06 10:17:32;;;;;;;23.20;9.35;;;;;;;;;;5002462;28;20053;-54
2021/12/06 10:20:00;;;;;;;20.73;8.75;;;;;;;;;;5006259;28;20111;-54
2021/12/06 10:22:27;;;;;;;22.92;8.00;;;;;;;;;;5003615;28;20689;-54
2021/12/06 10:24:56;;;;;;;21.48;8.82;;;;;;;;;;5008479;28;20058;-57
2021/12/06 10:27:26;;;;;;;18.80;8.43;;;;;;;;;;5005584;28;20077;-57
2021/12/06 10:29:54;;;;;;;17.92;6.82;;;;;;;;;;5005867;28;20502;-52
2021/12/06 10:32:22;;;;;;;16.95;7.22;;;;;;;;;;5002182;28;20061;-57
2021/12/06 10:34:51;;;;;;;21.83;8.40;;;;;;;;;;5006359;28;20108;-56
2021/12/06 10:37:17;;;;;;;;;;;;;;;;;;5002515;28;20060;-55
2021/12/06 10:39:43;;;;;;;20.88;7.53;;;;;;;;;;5004834;28;19925;-53
2021/12/06 10:42:25;;;;;;;19.05;7.68;;;;;;;;;;5002028;28;20049;-57
2021/12/06 10:44:52;;;;;;;21.05;8.13;;;;;;;;;;5005448;28;20064;-55
2021/12/06 10:47:18;;;;;;;18.63;8.05;;;;;;;;;;5003147;28;20080;-54
2021/12/06 10:49:47;;;;;;;19.40;7.57;;;;;;;;;;5005004;28;20080;-54
2021/12/06 10:52:23;;;;;;;19.38;7.88;;;;;;;;;;5005342;28;20050;-56
2021/12/06 10:54:52;;;;;;;19.42;7.97;;;;;;;;;;5001488;28;20116;-55
2021/12/06 10:57:18;;;;;;;;;;;;;;;;;;5005827;28;20045;-54
2021/12/06 10:59:46;;;;;;;13.55;4.82;;;;;;;;;;5018392;28;20008;-57
2021/12/06 11:02:13;;;;;;;18.23;6.97;;;;;;;;;;5005098;28;20057;-57
2021/12/06 11:04:42;;;;;;;18.10;7.80;;;;;;;;;;5001525;28;20060;-54
2021/12/06 11:07:09;;;;;;;24.55;8.88;;;;;;;;;;5005199;28;20176;-57
2021/12/06 11:09:36;;;;;;;22.33;7.75;;;;;;;;;;5001349;28;20096;-55
2021/12/06 11:12:04;;;;;;;24.48;7.15;;;;;;;;;;5005467;28;20127;-57
2021/12/06 11:14:32;;;;;;;18.17;6.90;;;;;;;;;;5004726;28;20077;-54
2021/12/06 11:17:02;;;;;;;28.58;9.07;;;;;;;;;;5009196;28;20148;-58
2021/12/06 11:19:29;;;;;;;21.48;8.02;;;;;;;;;;5006199;28;20053;-56
2021/12/06 11:21:56;;;;;;;23.67;8.98;;;;;;;;;;5010030;28;20064;-54
2021/12/06 11:24:24;;;;;;;23.60;8.38;;;;;;;;;;5005320;28;20137;-55
2021/12/06 11:26:52;;;;;;;22.50;7.70;;;;;;;;;;5009454;28;20594;-53
2021/12/06 11:29:20;;;;;;;26.60;9.60;;;;;;;;;;5005376;28;20161;-56
2021/12/06 11:31:51;;;;;;;18.73;7.60;;;;;;;;;;5009111;28;20053;-55
2021/12/06 11:34:19;;;;;;;22.38;8.32;;;;;;;;;;5005155;28;20054;-54
2021/12/06 11:36:46;;;;;;;31.20;11.80;;;;;;;;;;5009100;28;20499;-51
2021/12/06 11:39:16;;;;;;;27.77;8.55;;;;;;;;;;5009756;28;20572;-59
2021/12/06 11:41:44;;;;;;;23.75;8.95;;;;;;;;;;5007410;28;20056;-56
2021/12/06 11:44:19;;;;;;;26.98;8.80;;;;;;;;;;5009105;28;20057;-55
2021/12/06 11:46:46;;;;;;;32.88;11.13;;;;;;;;;;5005522;28;20149;-58
2021/12/06 11:49:21;;;;;;;30.67;10.00;;;;;;;;;;5011371;28;20065;-56
2021/12/06 11:51:50;;;;;;;27.65;9.93;;;;;;;;;;5007111;28;20054;-57
2021/12/06 11:54:16;;;;;;;25.45;9.13;;;;;;;;;;5009758;28;20077;-56
2021/12/06 11:56:48;;;;;;;28.48;10.10;;;;;;;;;;5004863;28;20054;-55
2021/12/06 11:59:16;;;;;;;27.77;9.50;;;;;;;;;;5008410;28;20057;-55
2021/12/06 12:01:43;;;;;;;26.87;9.40;;;;;;;;;;5004676;28;20058;-55
2021/12/06 12:04:11;;;;;;;24.05;8.50;;;;;;;;;;5008268;28;20050;-51
2021/12/06 12:06:40;;;;;;;22.23;7.82;;;;;;;;;;5004666;28;20181;-56
2021/12/06 12:09:08;;;;;;;26.50;8.65;;;;;;;;;;5006614;28;20057;-57
2021/12/06 12:11:50;;;;;;;21.98;7.78;;;;;;;;;;4992307;28;20132;-55
2021/12/06 12:14:19;;;;;;;23.95;7.78;;;;;;;;;;4995700;28;20551;-57
2021/12/06 12:16:46;;;;;;;;;;;;;;;;;;5004650;28;20049;-56
2021/12/06 12:19:13;;;;;;;19.67;7.07;;;;;;;;;;5023795;28;19987;-57
2021/12/06 12:21:41;;;;;;;27.58;9.50;;;;;;;;;;5004115;28;20323;-55
2021/12/06 12:24:07;;;;;;;23.53;9.20;;;;;;;;;;5006488;28;20082;-56
2021/12/06 12:26:41;;;;;;;23.77;9.30;;;;;;;;;;5004187;28;20121;-55
2021/12/06 12:29:15;;;;;;;18.63;7.45;;;;;;;;;;5007617;28;20157;-58
2021/12/06 12:31:42;;;;;;;20.75;7.25;;;;;;;;;;5019705;28;20069;-55
2021/12/06 12:34:10;;;;;;;22.10;7.50;;;;;;;;;;5007512;28;20499;-56
2021/12/06 12:36:38;;;;;;;21.05;7.43;;;;;;;;;;5004782;28;20281;-57
2021/12/06 12:39:15;;;;;;;17.13;6.70;;;;;;;;;;5007225;28;20585;-54
2021/12/06 12:41:48;;;;;;;21.48;7.25;;;;;;;;;;5001311;28;20053;-56
2021/12/06 12:44:15;;;;;;;21.92;8.18;;;;;;;;;;4988791;28;20054;-55
2021/12/06 12:46:44;;;;;;;23.45;8.63;;;;;;;;;;5005003;28;20065;-57
2021/12/06 12:49:10;;;;;;;;;;;;;;;;;;5019923;28;20514;-54
2021/12/06 12:51:39;;;;;;;19.02;6.43;;;;;;;;;;5016546;28;19932;-55
2021/12/06 12:54:09;;;;;;;22.40;7.30;;;;;;;;;;5020413;28;20077;-56
2021/12/06 12:56:38;;;;;;;21.10;7.10;;;;;;;;;;5007595;28;20053;-56
2021/12/06 12:59:18;;;;;;;18.13;6.95;;;;;;;;;;5004102;28;20140;-56
2021/12/06 13:01:46;;;;;;;15.40;6.13;;;;;;;;;;5023013;28;20061;-56
2021/12/06 13:04:13;;;;;;;19.73;5.80;;;;;;;;;;5004030;28;20054;-56
2021/12/06 13:06:41;;;;;;;20.05;7.35;;;;;;;;;;5007662;28;20112;-55
2021/12/06 13:09:26;;;;;;;19.60;6.32;;;;;;;;;;5019861;28;20085;-56
2021/12/06 13:11:56;;;;;;;21.92;7.32;;;;;;;;;;5007560;28;20061;-54
2021/12/06 13:14:27;;;;;;;19.83;6.72;;;;;;;;;;5004785;28;20054;-53
2021/12/06 13:17:00;;;;;;;16.67;6.57;;;;;;;;;;5009706;28;20046;-55
2021/12/06 13:19:35;;;;;;;21.45;7.63;;;;;;;;;;5005393;28;20053;-55
2021/12/06 13:22:08;;;;;;;20.58;7.40;;;;;;;;;;5006847;28;20073;-56
2021/12/06 13:24:41;;;;;;;20.08;6.70;;;;;;;;;;5003159;28;20103;-55
2021/12/06 13:27:20;;;;;;;20.92;7.47;;;;;;;;;;5006855;28;20136;-55
2021/12/06 13:29:47;;;;;;;18.48;6.40;;;;;;;;;;5002887;28;20504;-56
2021/12/06 13:32:28;;;;;;;24.73;7.47;;;;;;;;;;5006894;28;20088;-54
2021/12/06 13:34:56;;;;;;;23.40;7.80;;;;;;;;;;5019250;28;20050;-58
2021/12/06 13:37:25;;;;;;;21.52;7.68;;;;;;;;;;5006038;28;20046;-57
2021/12/06 13:39:53;;;;;;;18.20;6.20;;;;;;;;;;5003278;28;20050;-56
2021/12/06 13:42:34;;;;;;;18.25;6.82;;;;;;;;;;5007700;28;20057;-56
2021/12/06 13:45:04;;;;;;;17.30;6.47;;;;;;;;;;5003026;28;20128;-57
2021/12/06 13:47:31;;;;;;;19.13;7.05;;;;;;;;;;4995858;28;20058;-57
2021/12/06 13:49:58;;;;;;;21.77;7.80;;;;;;;;;;5001985;28;20049;-56
2021/12/06 13:52:35;;;;;;;17.73;7.72;;;;;;;;;;5006040;28;20140;-56
2021/12/06 13:55:16;;;;;;;7.63;2.78;;;;;;;;;;5002553;28;20119;-55
2021/12/06 13:57:43;;;;;;;18.80;5.95;;;;;;;;;;5006420;28;20058;-55
2021/12/06 14:00:11;;;;;;;16.63;6.30;;;;;;;;;;5001730;28;20081;-55
2021/12/06 14:02:38;;;;;;;15.13;6.03;;;;;;;;;;5006344;28;20120;-56
2021/12/06 14:05:06;;;;;;;18.17;6.57;;;;;;;;;;5001988;28;20077;-58
2021/12/06 14:07:32;;;;;;;19.30;6.50;;;;;;;;;;5006366;28;20081;-58
2021/12/06 14:09:59;;;;;;;12.90;5.53;;;;;;;;;;5006870;28;20132;-56
2021/12/06 14:12:28;;;;;;;17.30;6.55;;;;;;;;;;5003045;28;20462;-56
2021/12/06 14:15:02;;;;;;;18.25;6.03;;;;;;;;;;5005839;28;20057;-54
2021/12/06 14:17:29;;;;;;;15.65;6.20;;;;;;;;;;5000866;28;20062;-53
2021/12/06 14:19:55;;;;;;;13.50;5.85;;;;;;;;;;5005557;28;20089;-57
2021/12/06 14:22:23;;;;;;;12.23;4.72;;;;;;;;;;5001573;28;20133;-55
2021/12/06 14:24:51;;;;;;;15.25;6.05;;;;;;;;;;5005415;28;20077;-56
2021/12/06 14:27:18;;;;;;;15.75;6.07;;;;;;;;;;5002032;28;20056;-57
2021/12/06 14:29:51;;;;;;;13.88;5.03;;;;;;;;;;5006163;28;20156;-57
2021/12/06 14:32:17;;;;;;;13.45;5.78;;;;;;;;;;5001925;28;20057;-56
2021/12/06 14:34:45;;;;;;;13.95;5.72;;;;;;;;;;4989563;28;20050;-55
2021/12/06 14:37:13;;;;;;;16.80;5.50;;;;;;;;;;5003215;28;20107;-54
2021/12/06 14:39:44;;;;;;;17.17;6.20;;;;;;;;;;5006684;28;20062;-56